Silvero — SDAK — position and weather

sailwx.info

Track history (hours):
 
Tides and Currents Weather Stations Pressure Air Temp Water Temp Dewpoint Dewpoint Depression Visibility Wind Speed Wind Dir Waves Ship Positions

Silvero

Last reported at 2017-Dec-11 17:00 UTC. Time now 2017-Dec-12 08:31 UTC.
Position N 59°20' E 018°05'.

Length 22 m.

Type: Passenger vessel. MMSI: 265568520.

Date/timePositionNaut miles runAvg speedWind from/ knotsBaromVisibWave heightAir tempDewpointWater temp
2017-Dec-11 17:00N 59°20' E 018°05'0 0.0
2017-Dec-11 16:30N 59°20' E 018°05'0 0.0
2017-Dec-11 16:00N 59°20' E 018°05'0 0.0
2017-Dec-11 15:30N 59°20' E 018°05'0 0.0
2017-Dec-11 15:00N 59°20' E 018°05'0 0.0
2017-Dec-11 14:30N 59°20' E 018°05'0 0.0
2017-Dec-11 14:00N 59°20' E 018°05'0 0.0
2017-Dec-11 13:30N 59°20' E 018°05'0 0.0
2017-Dec-11 13:00N 59°20' E 018°05'0 0.0
2017-Dec-11 12:30N 59°20' E 018°05'0 0.0
2017-Dec-11 12:00N 59°20' E 018°05'0 0.0
2017-Dec-11 11:30N 59°20' E 018°05'0 0.0
2017-Dec-11 11:00N 59°20' E 018°05'0 0.8
2017-Dec-11 10:30N 59°19' E 018°05'5 9.6
2017-Dec-11 10:00N 59°21' E 018°14'510.6
2017-Dec-11 09:31N 59°24' E 018°22'0 0.9
2017-Dec-11 09:00N 59°24' E 018°21'0 0.0
2017-Dec-11 08:30N 59°24' E 018°21'0 0.0
2017-Dec-11 05:47N 59°24' E 018°21'0 0.0
2017-Dec-11 05:30N 59°24' E 018°21'0 0.0
2017-Dec-11 05:00N 59°24' E 018°21'0 0.0
2017-Dec-10 17:50N 59°24' E 018°21'2 5.1
2017-Dec-10 17:30N 59°23' E 018°24'2 2.0
2017-Dec-10 16:40N 59°24' E 018°21'2 9.5
2017-Dec-10 16:30N 59°23' E 018°24'2 2.4
2017-Dec-10 15:43N 59°21' E 018°25'1 5.7
2017-Dec-10 15:31N 59°22' E 018°27'3 3.7
2017-Dec-10 14:37N 59°24' E 018°21'2 7.8
2017-Dec-10 14:25N 59°26' E 018°22'1 0.5
2017-Dec-10 12:37N 59°25' E 018°22'1 2.4
2017-Dec-10 12:17N 59°24' E 018°21'1 5.3
2017-Dec-10 12:01N 59°23' E 018°24'1 1.0
2017-Dec-10 10:46N 59°24' E 018°22'2 6.5
2017-Dec-10 10:30N 59°23' E 018°25'2 2.5
2017-Dec-10 09:45N 59°21' E 018°25'2 6.2
2017-Dec-10 09:25N 59°23' E 018°24'2 2.6
2017-Dec-10 08:44N 59°24' E 018°21'0 0.0
2017-Dec-10 08:26N 59°24' E 018°21'0 0.0
2017-Dec-10 07:59N 59°24' E 018°21'1 2.6
2017-Dec-10 07:29N 59°24' E 018°23'1 0.0
2017-Dec-09 15:31N 59°24' E 018°22'0 0.4
2017-Dec-09 14:23N 59°24' E 018°22'3 8.4
2017-Dec-09 14:00N 59°22' E 018°26'1 2.2
2017-Dec-09 13:30N 59°23' E 018°25'3 2.8
2017-Dec-09 12:35N 59°25' E 018°22'1 0.6
2017-Dec-09 11:08N 59°24' E 018°21'1 8.2
2017-Dec-09 11:00N 59°24' E 018°23'1 1.3
2017-Dec-09 10:27N 59°24' E 018°22'5 7.0
2017-Dec-09 09:48N 59°27' E 018°28'5 7.5
2017-Dec-09 09:10N 59°24' E 018°21'0 0.2
2017-Dec-09 08:59N 59°24' E 018°21'2 3.3
2017-Dec-09 08:30N 59°23' E 018°24'2 3.7
2017-Dec-09 08:00N 59°21' E 018°25'3 5.6
2017-Dec-09 07:27N 59°24' E 018°22'0 1.0
2017-Dec-09 06:57N 59°24' E 018°23'1 0.6
2017-Dec-09 05:38N 59°24' E 018°21'0 0.0
2017-Dec-09 05:29N 59°24' E 018°21'0 0.0
2017-Dec-09 05:00N 59°24' E 018°21'0 0.0
2017-Dec-09 04:30N 59°24' E 018°21'0 0.0
2017-Dec-09 04:00N 59°24' E 018°21'0 0.0
2017-Dec-09 03:30N 59°24' E 018°21'0 0.0
2017-Dec-09 03:00N 59°24' E 018°21'0 0.0
2017-Dec-09 02:28N 59°24' E 018°21'0 0.0
2017-Dec-09 01:50N 59°24' E 018°21'0 0.0
2017-Dec-09 01:30N 59°24' E 018°21'0 0.0
2017-Dec-09 00:58N 59°24' E 018°21'0 0.0
2017-Dec-09 00:29N 59°24' E 018°21'0 0.0
2017-Dec-09 00:00N 59°24' E 018°21'0 0.0
2017-Dec-08 23:18N 59°24' E 018°21'0 0.0
2017-Dec-08 22:55N 59°24' E 018°21'0 0.0
2017-Dec-08 18:51N 59°24' E 018°21'1 2.7
2017-Dec-08 18:28N 59°24' E 018°23'1 3.2
2017-Dec-08 18:01N 59°23' E 018°26'3 4.8
2017-Dec-08 17:29N 59°24' E 018°21'2 3.7
2017-Dec-08 17:01N 59°23' E 018°24'2 3.2
2017-Dec-08 16:29N 59°24' E 018°21'0 0.1
2017-Dec-08 15:56N 59°24' E 018°21'2 3.8
2017-Dec-08 15:30N 59°23' E 018°24'2 2.8
2017-Dec-08 14:57N 59°24' E 018°21'0 0.2
2017-Dec-08 14:24N 59°24' E 018°21'1 2.8
2017-Dec-08 13:59N 59°24' E 018°23'1 1.8
2017-Dec-08 13:27N 59°24' E 018°22'0 0.3
2017-Dec-08 12:51N 59°24' E 018°21'0 0.0
2017-Dec-08 12:21N 59°24' E 018°21'0 0.1
2017-Dec-08 12:00N 59°24' E 018°21'0 0.3
2017-Dec-08 11:09N 59°24' E 018°22'1 9.8
2017-Dec-08 11:00N 59°23' E 018°24'2 0.7
2017-Dec-08 08:47N 59°24' E 018°21'1 4.7
2017-Dec-08 08:30N 59°23' E 018°24'2 4.2
2017-Dec-08 07:59N 59°21' E 018°25'3 6.7
2017-Dec-08 07:30N 59°24' E 018°21'1 2.0
2017-Dec-08 07:00N 59°24' E 018°23'1 2.2
2017-Dec-08 06:30N 59°24' E 018°21'0 0.0
2017-Dec-08 05:59N 59°24' E 018°21'1 1.9
2017-Dec-08 05:15N 59°25' E 018°21'1 0.6
2017-Dec-08 02:54N 59°24' E 018°21'1 0.1
2017-Dec-07 17:09N 59°24' E 018°23'1 2.9
2017-Dec-07 16:47N 59°24' E 018°21'0 1.2
2017-Dec-07 16:28N 59°24' E 018°22'0 0.7
2017-Dec-07 16:00N 59°24' E 018°21'1 0.5
2017-Dec-07 14:45N 59°24' E 018°22'0 0.6
2017-Dec-07 14:10N 59°24' E 018°22'1 7.5
2017-Dec-07 13:59N 59°23' E 018°24'2 4.3
2017-Dec-07 13:30N 59°22' E 018°26'3 5.8
2017-Dec-07 12:55N 59°24' E 018°21'0 0.1
2017-Dec-07 12:16N 59°24' E 018°21'0 0.2
2017-Dec-07 12:00N 59°24' E 018°21'0 0.0
2017-Dec-07 11:08N 59°24' E 018°21'1 6.9
2017-Dec-07 10:58N 59°24' E 018°23'1 0.7
2017-Dec-07 09:22N 59°24' E 018°21'0 0.4
2017-Dec-07 08:44N 59°24' E 018°22'1 5.2
2017-Dec-07 08:30N 59°23' E 018°24'2 4.3
2017-Dec-07 08:00N 59°21' E 018°25'3 5.3
2017-Dec-07 07:23N 59°24' E 018°21'0 0.4
2017-Dec-07 06:55N 59°24' E 018°22'0 0.2
2017-Dec-07 06:26N 59°24' E 018°22'0 0.6
2017-Dec-07 05:58N 59°24' E 018°21'1 1.7
2017-Dec-07 05:29N 59°25' E 018°22'1 1.1
2017-Dec-07 04:48N 59°24' E 018°21'0 0.0
2017-Dec-07 04:28N 59°24' E 018°21'0 0.0
2017-Dec-07 03:59N 59°24' E 018°21'0 0.0
2017-Dec-07 03:30N 59°24' E 018°21'0 0.0
2017-Dec-07 02:58N 59°24' E 018°21'0 0.0
2017-Dec-07 02:30N 59°24' E 018°21'0 0.0
2017-Dec-07 02:00N 59°24' E 018°21'0 0.0
2017-Dec-07 01:30N 59°24' E 018°21'0 0.0
2017-Dec-07 00:57N 59°24' E 018°21'0 0.0
2017-Dec-07 00:17N 59°24' E 018°21'0 0.0
2017-Dec-06 23:57N 59°24' E 018°21'0 0.0
2017-Dec-06 23:16N 59°24' E 018°21'0 0.0
2017-Dec-06 23:00N 59°24' E 018°21'0 0.0
2017-Dec-06 22:18N 59°24' E 018°21'0 0.0
2017-Dec-06 21:56N 59°24' E 018°21'  
2017-Dec-04 10:24N 59°24' E 018°21'1 0.7
2017-Dec-04 09:11N 59°25' E 018°22'1 1.9
2017-Dec-04 08:46N 59°24' E 018°21'1 5.6
2017-Dec-04 08:30N 59°23' E 018°24'2 4.2
2017-Dec-04 08:00N 59°21' E 018°25'3 5.4
2017-Dec-04 07:23N 59°24' E 018°21'1 3.7
2017-Dec-04 07:00N 59°23' E 018°24'1 1.9
2017-Dec-04 06:23N 59°24' E 018°22'0 0.3
2017-Dec-04 05:38N 59°24' E 018°21'1 5.3
2017-Dec-04 05:28N 59°25' E 018°22'1 1.2
2017-Dec-04 04:50N 59°24' E 018°21'0 0.0
2017-Dec-04 03:18N 59°24' E 018°21'0 0.0
2017-Dec-04 00:38N 59°24' E 018°21'0 0.0
2017-Dec-04 00:22N 59°24' E 018°21'0 0.0
2017-Dec-03 22:58N 59°24' E 018°21'0 0.0
2017-Dec-03 19:28N 59°24' E 018°21'0 0.2
2017-Dec-03 18:58N 59°24' E 018°21'0 0.3
2017-Dec-03 17:38N 59°24' E 018°22'1 8.6
2017-Dec-03 17:30N 59°23' E 018°24'1 2.0
2017-Dec-03 16:49N 59°24' E 018°21'2 5.3
2017-Dec-03 16:28N 59°23' E 018°24'2 2.4
2017-Dec-03 15:49N 59°21' E 018°25'2 5.1
2017-Dec-03 15:30N 59°23' E 018°25'2 2.9
2017-Dec-03 14:40N 59°24' E 018°21'1 4.5
2017-Dec-03 14:30N 59°25' E 018°22'1 0.4
2017-Dec-03 12:26N 59°24' E 018°21'1 2.2
2017-Dec-03 12:00N 59°24' E 018°23'1 0.7
2017-Dec-03 10:44N 59°24' E 018°21'1 5.9
2017-Dec-03 10:29N 59°23' E 018°24'2 3.3
2017-Dec-03 09:51N 59°21' E 018°25'2 5.2
2017-Dec-03 09:31N 59°23' E 018°26'3 1.6
2017-Dec-03 07:53N 59°24' E 018°21'0 0.3
2017-Dec-03 07:22N 59°24' E 018°22'0 0.0
2017-Dec-03 03:57N 59°24' E 018°21'0 0.0
2017-Dec-03 02:40N 59°24' E 018°21'0 0.0
2017-Dec-03 02:31N 59°24' E 018°21'0 0.0
2017-Dec-03 01:34N 59°24' E 018°21'0 0.0
2017-Dec-02 16:40N 59°24' E 018°21'1 5.4
2017-Dec-02 16:28N 59°24' E 018°23'1 2.1
2017-Dec-02 15:57N 59°24' E 018°21'1 2.0
2017-Dec-02 15:28N 59°24' E 018°23'1 0.9
2017-Dec-02 14:24N 59°24' E 018°21'3 8.0
2017-Dec-02 14:00N 59°22' E 018°26'1 1.6
2017-Dec-02 13:29N 59°23' E 018°25'2 1.0
2017-Dec-02 11:07N 59°24' E 018°21'1 7.7
2017-Dec-02 11:00N 59°24' E 018°23'1 1.9
2017-Dec-02 10:25N 59°24' E 018°21'3 7.6
2017-Dec-02 09:58N 59°26' E 018°26'3 3.9
2017-Dec-02 09:16N 59°25' E 018°22'1 1.5
2017-Dec-02 08:43N 59°24' E 018°21'2 8.2
2017-Dec-02 08:30N 59°23' E 018°24'2 3.0
2017-Dec-02 07:57N 59°21' E 018°25'3 6.0
2017-Dec-02 07:24N 59°24' E 018°21'1 3.6
2017-Dec-02 07:00N 59°23' E 018°24'1 2.8
2017-Dec-02 06:29N 59°24' E 018°21'0 0.0
2017-Dec-02 05:59N 59°24' E 018°21'0 0.0
2017-Dec-01 18:36N 59°24' E 018°21'1 6.7
2017-Dec-01 18:27N 59°24' E 018°23'2 3.5
2017-Dec-01 18:00N 59°23' E 018°26'2 4.1
2017-Dec-01 17:25N 59°24' E 018°21'  
Track history (hours):
 
Tides and Currents Weather Stations Pressure Air Temp Water Temp Dewpoint Dewpoint Depression Visibility Wind Speed Wind Dir Waves Ship Positions

Silvero

Last reported at 2017-Dec-11 17:00 UTC. Time now 2017-Dec-12 08:31 UTC.
Position N 59°20' E 018°05'.

Length 22 m.

Type: Passenger vessel. MMSI: 265568520.

Date/timePositionNaut miles runAvg speedWind from/ knotsBaromVisibWave heightAir tempDewpointWater temp
2017-Dec-11 17:00N 59°20' E 018°05'0 0.0
2017-Dec-11 16:30N 59°20' E 018°05'0 0.0
2017-Dec-11 16:00N 59°20' E 018°05'0 0.0
2017-Dec-11 15:30N 59°20' E 018°05'0 0.0
2017-Dec-11 15:00N 59°20' E 018°05'0 0.0
2017-Dec-11 14:30N 59°20' E 018°05'0 0.0
2017-Dec-11 14:00N 59°20' E 018°05'0 0.0
2017-Dec-11 13:30N 59°20' E 018°05'0 0.0
2017-Dec-11 13:00N 59°20' E 018°05'0 0.0
2017-Dec-11 12:30N 59°20' E 018°05'0 0.0
2017-Dec-11 12:00N 59°20' E 018°05'0 0.0
2017-Dec-11 11:30N 59°20' E 018°05'0 0.0
2017-Dec-11 11:00N 59°20' E 018°05'0 0.8
2017-Dec-11 10:30N 59°19' E 018°05'5 9.6
2017-Dec-11 10:00N 59°21' E 018°14'510.6
2017-Dec-11 09:31N 59°24' E 018°22'0 0.9
2017-Dec-11 09:00N 59°24' E 018°21'0 0.0
2017-Dec-11 08:30N 59°24' E 018°21'0 0.0
2017-Dec-11 05:47N 59°24' E 018°21'0 0.0
2017-Dec-11 05:30N 59°24' E 018°21'0 0.0
2017-Dec-11 05:00N 59°24' E 018°21'0 0.0
2017-Dec-10 17:50N 59°24' E 018°21'2 5.1
2017-Dec-10 17:30N 59°23' E 018°24'2 2.0
2017-Dec-10 16:40N 59°24' E 018°21'2 9.5
2017-Dec-10 16:30N 59°23' E 018°24'2 2.4
2017-Dec-10 15:43N 59°21' E 018°25'1 5.7
2017-Dec-10 15:31N 59°22' E 018°27'3 3.7
2017-Dec-10 14:37N 59°24' E 018°21'2 7.8
2017-Dec-10 14:25N 59°26' E 018°22'1 0.5
2017-Dec-10 12:37N 59°25' E 018°22'1 2.4
2017-Dec-10 12:17N 59°24' E 018°21'1 5.3
2017-Dec-10 12:01N 59°23' E 018°24'1 1.0
2017-Dec-10 10:46N 59°24' E 018°22'2 6.5
2017-Dec-10 10:30N 59°23' E 018°25'2 2.5
2017-Dec-10 09:45N 59°21' E 018°25'2 6.2
2017-Dec-10 09:25N 59°23' E 018°24'2 2.6
2017-Dec-10 08:44N 59°24' E 018°21'0 0.0
2017-Dec-10 08:26N 59°24' E 018°21'0 0.0
2017-Dec-10 07:59N 59°24' E 018°21'1 2.6
2017-Dec-10 07:29N 59°24' E 018°23'1 0.0
2017-Dec-09 15:31N 59°24' E 018°22'0 0.4
2017-Dec-09 14:23N 59°24' E 018°22'3 8.4
2017-Dec-09 14:00N 59°22' E 018°26'1 2.2
2017-Dec-09 13:30N 59°23' E 018°25'3 2.8
2017-Dec-09 12:35N 59°25' E 018°22'1 0.6
2017-Dec-09 11:08N 59°24' E 018°21'1 8.2
2017-Dec-09 11:00N 59°24' E 018°23'1 1.3
2017-Dec-09 10:27N 59°24' E 018°22'5 7.0
2017-Dec-09 09:48N 59°27' E 018°28'5 7.5
2017-Dec-09 09:10N 59°24' E 018°21'0 0.2
2017-Dec-09 08:59N 59°24' E 018°21'2 3.3
2017-Dec-09 08:30N 59°23' E 018°24'2 3.7
2017-Dec-09 08:00N 59°21' E 018°25'3 5.6
2017-Dec-09 07:27N 59°24' E 018°22'0 1.0
2017-Dec-09 06:57N 59°24' E 018°23'1 0.6
2017-Dec-09 05:38N 59°24' E 018°21'0 0.0
2017-Dec-09 05:29N 59°24' E 018°21'0 0.0
2017-Dec-09 05:00N 59°24' E 018°21'0 0.0
2017-Dec-09 04:30N 59°24' E 018°21'0 0.0
2017-Dec-09 04:00N 59°24' E 018°21'0 0.0
2017-Dec-09 03:30N 59°24' E 018°21'0 0.0
2017-Dec-09 03:00N 59°24' E 018°21'0 0.0
2017-Dec-09 02:28N 59°24' E 018°21'0 0.0
2017-Dec-09 01:50N 59°24' E 018°21'0 0.0
2017-Dec-09 01:30N 59°24' E 018°21'0 0.0
2017-Dec-09 00:58N 59°24' E 018°21'0 0.0
2017-Dec-09 00:29N 59°24' E 018°21'0 0.0
2017-Dec-09 00:00N 59°24' E 018°21'0 0.0
2017-Dec-08 23:18N 59°24' E 018°21'0 0.0
2017-Dec-08 22:55N 59°24' E 018°21'0 0.0
2017-Dec-08 18:51N 59°24' E 018°21'1 2.7
2017-Dec-08 18:28N 59°24' E 018°23'1 3.2
2017-Dec-08 18:01N 59°23' E 018°26'3 4.8
2017-Dec-08 17:29N 59°24' E 018°21'2 3.7
2017-Dec-08 17:01N 59°23' E 018°24'2 3.2
2017-Dec-08 16:29N 59°24' E 018°21'0 0.1
2017-Dec-08 15:56N 59°24' E 018°21'2 3.8
2017-Dec-08 15:30N 59°23' E 018°24'2 2.8
2017-Dec-08 14:57N 59°24' E 018°21'0 0.2
2017-Dec-08 14:24N 59°24' E 018°21'1 2.8
2017-Dec-08 13:59N 59°24' E 018°23'1 1.8
2017-Dec-08 13:27N 59°24' E 018°22'0 0.3
2017-Dec-08 12:51N 59°24' E 018°21'0 0.0
2017-Dec-08 12:21N 59°24' E 018°21'0 0.1
2017-Dec-08 12:00N 59°24' E 018°21'0 0.3
2017-Dec-08 11:09N 59°24' E 018°22'1 9.8
2017-Dec-08 11:00N 59°23' E 018°24'2 0.7
2017-Dec-08 08:47N 59°24' E 018°21'1 4.7
2017-Dec-08 08:30N 59°23' E 018°24'2 4.2
2017-Dec-08 07:59N 59°21' E 018°25'3 6.7
2017-Dec-08 07:30N 59°24' E 018°21'1 2.0
2017-Dec-08 07:00N 59°24' E 018°23'1 2.2
2017-Dec-08 06:30N 59°24' E 018°21'0 0.0
2017-Dec-08 05:59N 59°24' E 018°21'1 1.9
2017-Dec-08 05:15N 59°25' E 018°21'1 0.6
2017-Dec-08 02:54N 59°24' E 018°21'1 0.1
2017-Dec-07 17:09N 59°24' E 018°23'1 2.9
2017-Dec-07 16:47N 59°24' E 018°21'0 1.2
2017-Dec-07 16:28N 59°24' E 018°22'0 0.7
2017-Dec-07 16:00N 59°24' E 018°21'1 0.5
2017-Dec-07 14:45N 59°24' E 018°22'0 0.6
2017-Dec-07 14:10N 59°24' E 018°22'1 7.5
2017-Dec-07 13:59N 59°23' E 018°24'2 4.3
2017-Dec-07 13:30N 59°22' E 018°26'3 5.8
2017-Dec-07 12:55N 59°24' E 018°21'0 0.1
2017-Dec-07 12:16N 59°24' E 018°21'0 0.2
2017-Dec-07 12:00N 59°24' E 018°21'0 0.0
2017-Dec-07 11:08N 59°24' E 018°21'1 6.9
2017-Dec-07 10:58N 59°24' E 018°23'1 0.7
2017-Dec-07 09:22N 59°24' E 018°21'0 0.4
2017-Dec-07 08:44N 59°24' E 018°22'1 5.2
2017-Dec-07 08:30N 59°23' E 018°24'2 4.3
2017-Dec-07 08:00N 59°21' E 018°25'3 5.3
2017-Dec-07 07:23N 59°24' E 018°21'0 0.4
2017-Dec-07 06:55N 59°24' E 018°22'0 0.2
2017-Dec-07 06:26N 59°24' E 018°22'0 0.6
2017-Dec-07 05:58N 59°24' E 018°21'1 1.7
2017-Dec-07 05:29N 59°25' E 018°22'1 1.1
2017-Dec-07 04:48N 59°24' E 018°21'0 0.0
2017-Dec-07 04:28N 59°24' E 018°21'0 0.0
2017-Dec-07 03:59N 59°24' E 018°21'0 0.0
2017-Dec-07 03:30N 59°24' E 018°21'0 0.0
2017-Dec-07 02:58N 59°24' E 018°21'0 0.0
2017-Dec-07 02:30N 59°24' E 018°21'0 0.0
2017-Dec-07 02:00N 59°24' E 018°21'0 0.0
2017-Dec-07 01:30N 59°24' E 018°21'0 0.0
2017-Dec-07 00:57N 59°24' E 018°21'0 0.0
2017-Dec-07 00:17N 59°24' E 018°21'0 0.0
2017-Dec-06 23:57N 59°24' E 018°21'0 0.0
2017-Dec-06 23:16N 59°24' E 018°21'0 0.0
2017-Dec-06 23:00N 59°24' E 018°21'0 0.0
2017-Dec-06 22:18N 59°24' E 018°21'0 0.0
2017-Dec-06 21:56N 59°24' E 018°21'  
2017-Dec-04 10:24N 59°24' E 018°21'1 0.7
2017-Dec-04 09:11N 59°25' E 018°22'1 1.9
2017-Dec-04 08:46N 59°24' E 018°21'1 5.6
2017-Dec-04 08:30N 59°23' E 018°24'2 4.2
2017-Dec-04 08:00N 59°21' E 018°25'3 5.4
2017-Dec-04 07:23N 59°24' E 018°21'1 3.7
2017-Dec-04 07:00N 59°23' E 018°24'1 1.9
2017-Dec-04 06:23N 59°24' E 018°22'0 0.3
2017-Dec-04 05:38N 59°24' E 018°21'1 5.3
2017-Dec-04 05:28N 59°25' E 018°22'1 1.2
2017-Dec-04 04:50N 59°24' E 018°21'0 0.0
2017-Dec-04 03:18N 59°24' E 018°21'0 0.0
2017-Dec-04 00:38N 59°24' E 018°21'0 0.0
2017-Dec-04 00:22N 59°24' E 018°21'0 0.0
2017-Dec-03 22:58N 59°24' E 018°21'0 0.0
2017-Dec-03 19:28N 59°24' E 018°21'0 0.2
2017-Dec-03 18:58N 59°24' E 018°21'0 0.3
2017-Dec-03 17:38N 59°24' E 018°22'1 8.6
2017-Dec-03 17:30N 59°23' E 018°24'1 2.0
2017-Dec-03 16:49N 59°24' E 018°21'2 5.3
2017-Dec-03 16:28N 59°23' E 018°24'2 2.4
2017-Dec-03 15:49N 59°21' E 018°25'2 5.1
2017-Dec-03 15:30N 59°23' E 018°25'2 2.9
2017-Dec-03 14:40N 59°24' E 018°21'1 4.5
2017-Dec-03 14:30N 59°25' E 018°22'1 0.4
2017-Dec-03 12:26N 59°24' E 018°21'1 2.2
2017-Dec-03 12:00N 59°24' E 018°23'1 0.7
2017-Dec-03 10:44N 59°24' E 018°21'1 5.9
2017-Dec-03 10:29N 59°23' E 018°24'2 3.3
2017-Dec-03 09:51N 59°21' E 018°25'2 5.2
2017-Dec-03 09:31N 59°23' E 018°26'3 1.6
2017-Dec-03 07:53N 59°24' E 018°21'0 0.3
2017-Dec-03 07:22N 59°24' E 018°22'0 0.0
2017-Dec-03 03:57N 59°24' E 018°21'0 0.0
2017-Dec-03 02:40N 59°24' E 018°21'0 0.0
2017-Dec-03 02:31N 59°24' E 018°21'0 0.0
2017-Dec-03 01:34N 59°24' E 018°21'0 0.0
2017-Dec-02 16:40N 59°24' E 018°21'1 5.4
2017-Dec-02 16:28N 59°24' E 018°23'1 2.1
2017-Dec-02 15:57N 59°24' E 018°21'1 2.0
2017-Dec-02 15:28N 59°24' E 018°23'1 0.9
2017-Dec-02 14:24N 59°24' E 018°21'3 8.0
2017-Dec-02 14:00N 59°22' E 018°26'1 1.6
2017-Dec-02 13:29N 59°23' E 018°25'2 1.0
2017-Dec-02 11:07N 59°24' E 018°21'1 7.7
2017-Dec-02 11:00N 59°24' E 018°23'1 1.9
2017-Dec-02 10:25N 59°24' E 018°21'3 7.6
2017-Dec-02 09:58N 59°26' E 018°26'3 3.9
2017-Dec-02 09:16N 59°25' E 018°22'1 1.5
2017-Dec-02 08:43N 59°24' E 018°21'2 8.2
2017-Dec-02 08:30N 59°23' E 018°24'2 3.0
2017-Dec-02 07:57N 59°21' E 018°25'3 6.0
2017-Dec-02 07:24N 59°24' E 018°21'1 3.6
2017-Dec-02 07:00N 59°23' E 018°24'1 2.8
2017-Dec-02 06:29N 59°24' E 018°21'0 0.0
2017-Dec-02 05:59N 59°24' E 018°21'0 0.0
2017-Dec-01 18:36N 59°24' E 018°21'1 6.7
2017-Dec-01 18:27N 59°24' E 018°23'2 3.5
2017-Dec-01 18:00N 59°23' E 018°26'2 4.1
2017-Dec-01 17:25N 59°24' E 018°21'  

Dump ship's entire track history